sensor_id;sensor_type;location;lat;lon;timestamp;pressure;altitude;pressure_sealevel;temperature;humidity
77626;BME280;66794;43.764;10.436;2023-07-09T00:00:01;102076.47;;;23.29;100.00
77626;BME280;66794;43.764;10.436;2023-07-09T00:02:48;102086.19;;;23.75;100.00
77626;BME280;66794;43.764;10.436;2023-07-09T00:05:34;102058.34;;;23.88;100.00
77626;BME280;66794;43.764;10.436;2023-07-09T00:08:30;102057.81;;;23.80;100.00
77626;BME280;66794;43.764;10.436;2023-07-09T00:11:17;102058.44;;;23.82;100.00
77626;BME280;66794;43.764;10.436;2023-07-09T00:14:05;102091.06;;;23.36;100.00
77626;BME280;66794;43.764;10.436;2023-07-09T00:16:51;102092.63;;;23.51;100.00
77626;BME280;66794;43.764;10.436;2023-07-09T00:19:36;102090.69;;;23.33;100.00
77626;BME280;66794;43.764;10.436;2023-07-09T00:22:22;102092.44;;;23.71;100.00
77626;BME280;66794;43.764;10.436;2023-07-09T00:25:11;102080.19;;;23.78;100.00
77626;BME280;66794;43.764;10.436;2023-07-09T00:28:02;102076.63;;;23.53;100.00
77626;BME280;66794;43.764;10.436;2023-07-09T00:30:48;102082.56;;;23.56;100.00
77626;BME280;66794;43.764;10.436;2023-07-09T00:33:34;102085.34;;;23.75;100.00
77626;BME280;66794;43.764;10.436;2023-07-09T00:36:30;102065.69;;;23.21;100.00
77626;BME280;66794;43.764;10.436;2023-07-09T00:39:21;102068.91;;;23.00;100.00
77626;BME280;66794;43.764;10.436;2023-07-09T00:42:15;102078.09;;;23.37;100.00
77626;BME280;66794;43.764;10.436;2023-07-09T00:45:17;102073.09;;;23.46;100.00
77626;BME280;66794;43.764;10.436;2023-07-09T00:48:11;102081.97;;;23.73;100.00
77626;BME280;66794;43.764;10.436;2023-07-09T00:50:58;102078.41;;;23.84;100.00
77626;BME280;66794;43.764;10.436;2023-07-09T00:53:45;102094.31;;;23.33;100.00
77626;BME280;66794;43.764;10.436;2023-07-09T00:56:38;102089.63;;;23.34;100.00
77626;BME280;66794;43.764;10.436;2023-07-09T00:59:28;102073.41;;;23.56;100.00
77626;BME280;66794;43.764;10.436;2023-07-09T01:02:15;102066.31;;;23.67;100.00
77626;BME280;66794;43.764;10.436;2023-07-09T01:05:01;102062.13;;;23.76;100.00
77626;BME280;66794;43.764;10.436;2023-07-09T01:07:48;102053.44;;;23.54;100.00
77626;BME280;66794;43.764;10.436;2023-07-09T01:10:33;102048.38;;;23.51;100.00
77626;BME280;66794;43.764;10.436;2023-07-09T01:13:19;102065.25;;;23.24;100.00
77626;BME280;66794;43.764;10.436;2023-07-09T01:16:05;102076.25;;;22.56;100.00
77626;BME280;66794;43.764;10.436;2023-07-09T01:18:51;102093.28;;;22.53;100.00
77626;BME280;66794;43.764;10.436;2023-07-09T01:21:37;102056.00;;;21.99;100.00
77626;BME280;66794;43.764;10.436;2023-07-09T01:24:49;102100.25;;;22.24;100.00
77626;BME280;66794;43.764;10.436;2023-07-09T01:27:46;102095.41;;;22.19;100.00
77626;BME280;66794;43.764;10.436;2023-07-09T01:30:37;102089.66;;;22.21;100.00
77626;BME280;66794;43.764;10.436;2023-07-09T01:33:23;102094.25;;;22.34;100.00
77626;BME280;66794;43.764;10.436;2023-07-09T01:36:10;102078.13;;;22.30;100.00
77626;BME280;66794;43.764;10.436;2023-07-09T01:38:56;102082.50;;;22.13;100.00
77626;BME280;66794;43.764;10.436;2023-07-09T01:41:42;102080.59;;;22.14;100.00
77626;BME280;66794;43.764;10.436;2023-07-09T01:44:28;102084.19;;;22.14;100.00
77626;BME280;66794;43.764;10.436;2023-07-09T01:47:14;102083.06;;;22.22;100.00
77626;BME280;66794;43.764;10.436;2023-07-09T01:50:00;102076.75;;;22.08;100.00
77626;BME280;66794;43.764;10.436;2023-07-09T01:52:47;102077.47;;;21.97;100.00
77626;BME280;66794;43.764;10.436;2023-07-09T01:55:35;102085.34;;;22.31;100.00
77626;BME280;66794;43.764;10.436;2023-07-09T01:58:20;102098.06;;;22.33;100.00
77626;BME280;66794;43.764;10.436;2023-07-09T02:01:10;102073.69;;;22.29;100.00
77626;BME280;66794;43.764;10.436;2023-07-09T02:03:56;102090.69;;;22.26;100.00
77626;BME280;66794;43.764;10.436;2023-07-09T02:06:42;102100.22;;;22.30;100.00
77626;BME280;66794;43.764;10.436;2023-07-09T02:09:27;102086.19;;;22.32;100.00
77626;BME280;66794;43.764;10.436;2023-07-09T02:12:14;102100.09;;;22.12;100.00
77626;BME280;66794;43.764;10.436;2023-07-09T02:15:00;102125.91;;;21.73;100.00
77626;BME280;66794;43.764;10.436;2023-07-09T02:17:46;102090.03;;;21.86;100.00
77626;BME280;66794;43.764;10.436;2023-07-09T02:20:32;102113.75;;;21.94;100.00
77626;BME280;66794;43.764;10.436;2023-07-09T02:23:18;102120.13;;;21.88;100.00
77626;BME280;66794;43.764;10.436;2023-07-09T02:26:04;102118.44;;;21.87;100.00
77626;BME280;66794;43.764;10.436;2023-07-09T02:28:49;102125.16;;;22.11;100.00
77626;BME280;66794;43.764;10.436;2023-07-09T02:31:35;102098.28;;;21.86;100.00
77626;BME280;66794;43.764;10.436;2023-07-09T02:34:21;102117.09;;;22.02;100.00
77626;BME280;66794;43.764;10.436;2023-07-09T02:37:11;102112.81;;;22.20;100.00
77626;BME280;66794;43.764;10.436;2023-07-09T02:39:56;102130.75;;;22.36;100.00
77626;BME280;66794;43.764;10.436;2023-07-09T02:42:42;102132.53;;;22.55;100.00
77626;BME280;66794;43.764;10.436;2023-07-09T02:45:28;102127.34;;;21.89;100.00
77626;BME280;66794;43.764;10.436;2023-07-09T02:48:14;102132.50;;;22.23;100.00
77626;BME280;66794;43.764;10.436;2023-07-09T02:50:59;102125.88;;;21.79;100.00
77626;BME280;66794;43.764;10.436;2023-07-09T02:53:45;102104.66;;;21.80;100.00
77626;BME280;66794;43.764;10.436;2023-07-09T02:56:31;102138.53;;;22.14;100.00
77626;BME280;66794;43.764;10.436;2023-07-09T02:59:17;102142.63;;;21.85;100.00
77626;BME280;66794;43.764;10.436;2023-07-09T03:02:03;102147.75;;;21.81;100.00
77626;BME280;66794;43.764;10.436;2023-07-09T03:04:49;102061.06;;;21.57;100.00
77626;BME280;66794;43.764;10.436;2023-07-09T03:07:35;102123.09;;;21.93;100.00
77626;BME280;66794;43.764;10.436;2023-07-09T03:10:20;102160.78;;;22.05;100.00
77626;BME280;66794;43.764;10.436;2023-07-09T03:13:06;102151.16;;;21.76;100.00
77626;BME280;66794;43.764;10.436;2023-07-09T03:15:56;102163.56;;;22.05;100.00
77626;BME280;66794;43.764;10.436;2023-07-09T03:18:42;102151.66;;;22.12;100.00
77626;BME280;66794;43.764;10.436;2023-07-09T03:21:28;102149.53;;;22.20;100.00
77626;BME280;66794;43.764;10.436;2023-07-09T03:24:14;102153.66;;;21.85;100.00
77626;BME280;66794;43.764;10.436;2023-07-09T03:27:04;102162.25;;;22.21;100.00
77626;BME280;66794;43.764;10.436;2023-07-09T03:29:50;102169.41;;;21.71;100.00
77626;BME280;66794;43.764;10.436;2023-07-09T03:32:35;102159.06;;;21.53;100.00
77626;BME280;66794;43.764;10.436;2023-07-09T03:35:21;102165.81;;;21.70;100.00
77626;BME280;66794;43.764;10.436;2023-07-09T03:38:08;102161.91;;;21.85;100.00
77626;BME280;66794;43.764;10.436;2023-07-09T03:40:56;102167.03;;;21.88;100.00
77626;BME280;66794;43.764;10.436;2023-07-09T03:43:42;102156.94;;;21.35;100.00
77626;BME280;66794;43.764;10.436;2023-07-09T03:46:27;102173.88;;;21.65;100.00
77626;BME280;66794;43.764;10.436;2023-07-09T03:49:13;102174.38;;;22.00;100.00
77626;BME280;66794;43.764;10.436;2023-07-09T03:51:59;102167.09;;;21.61;100.00
77626;BME280;66794;43.764;10.436;2023-07-09T03:54:45;102138.28;;;21.17;100.00
77626;BME280;66794;43.764;10.436;2023-07-09T03:57:31;102178.28;;;21.86;100.00
77626;BME280;66794;43.764;10.436;2023-07-09T04:00:17;102165.19;;;21.55;100.00
77626;BME280;66794;43.764;10.436;2023-07-09T04:03:03;102169.88;;;21.48;100.00
77626;BME280;66794;43.764;10.436;2023-07-09T04:05:48;102149.72;;;21.27;100.00
77626;BME280;66794;43.764;10.436;2023-07-09T04:08:34;102167.09;;;21.08;100.00
77626;BME280;66794;43.764;10.436;2023-07-09T04:11:20;102178.53;;;20.85;100.00
77626;BME280;66794;43.764;10.436;2023-07-09T04:14:06;102180.66;;;20.83;100.00
77626;BME280;66794;43.764;10.436;2023-07-09T04:16:52;102174.09;;;20.78;100.00
77626;BME280;66794;43.764;10.436;2023-07-09T04:19:38;102189.56;;;21.05;100.00
77626;BME280;66794;43.764;10.436;2023-07-09T04:22:24;102178.97;;;21.28;100.00
77626;BME280;66794;43.764;10.436;2023-07-09T04:25:11;102181.13;;;21.53;100.00
77626;BME280;66794;43.764;10.436;2023-07-09T04:27:57;102174.69;;;21.72;100.00
77626;BME280;66794;43.764;10.436;2023-07-09T04:30:50;102179.78;;;21.75;100.00
77626;BME280;66794;43.764;10.436;2023-07-09T04:33:36;102184.91;;;21.59;100.00
77626;BME280;66794;43.764;10.436;2023-07-09T04:36:22;102188.53;;;21.46;100.00
77626;BME280;66794;43.764;10.436;2023-07-09T04:39:08;102182.34;;;21.57;100.00
77626;BME280;66794;43.764;10.436;2023-07-09T04:41:54;102178.69;;;21.83;100.00
77626;BME280;66794;43.764;10.436;2023-07-09T04:44:40;102180.34;;;21.91;100.00
77626;BME280;66794;43.764;10.436;2023-07-09T04:47:26;102167.25;;;21.79;100.00
77626;BME280;66794;43.764;10.436;2023-07-09T04:50:12;102144.03;;;21.42;100.00
77626;BME280;66794;43.764;10.436;2023-07-09T04:52:59;102204.81;;;21.74;100.00
77626;BME280;66794;43.764;10.436;2023-07-09T04:55:45;102199.06;;;21.82;100.00
77626;BME280;66794;43.764;10.436;2023-07-09T04:58:31;102143.50;;;21.78;100.00
77626;BME280;66794;43.764;10.436;2023-07-09T05:01:17;102186.66;;;22.24;100.00
77626;BME280;66794;43.764;10.436;2023-07-09T05:04:03;102166.91;;;22.21;100.00
77626;BME280;66794;43.764;10.436;2023-07-09T05:06:49;102170.81;;;22.45;100.00
77626;BME280;66794;43.764;10.436;2023-07-09T05:09:35;102206.72;;;22.90;100.00
77626;BME280;66794;43.764;10.436;2023-07-09T05:12:21;102166.47;;;22.30;100.00
77626;BME280;66794;43.764;10.436;2023-07-09T05:15:07;102170.69;;;22.33;100.00
77626;BME280;66794;43.764;10.436;2023-07-09T05:17:53;102177.13;;;22.20;100.00
77626;BME280;66794;43.764;10.436;2023-07-09T05:20:39;102218.97;;;22.55;100.00
77626;BME280;66794;43.764;10.436;2023-07-09T05:23:25;102207.09;;;22.87;100.00
77626;BME280;66794;43.764;10.436;2023-07-09T05:26:11;102193.53;;;22.85;100.00
77626;BME280;66794;43.764;10.436;2023-07-09T05:28:57;102220.94;;;23.18;100.00
77626;BME280;66794;43.764;10.436;2023-07-09T05:31:44;102177.13;;;23.22;100.00
77626;BME280;66794;43.764;10.436;2023-07-09T05:34:30;102172.91;;;23.38;100.00
77626;BME280;66794;43.764;10.436;2023-07-09T05:37:15;102194.81;;;23.64;100.00
77626;BME280;66794;43.764;10.436;2023-07-09T05:40:01;102205.00;;;23.88;100.00
77626;BME280;66794;43.764;10.436;2023-07-09T05:42:48;102205.88;;;23.64;100.00
77626;BME280;66794;43.764;10.436;2023-07-09T05:45:34;102221.13;;;23.73;100.00
77626;BME280;66794;43.764;10.436;2023-07-09T05:48:20;102204.69;;;23.53;100.00
77626;BME280;66794;43.764;10.436;2023-07-09T05:51:05;102259.50;;;24.06;100.00
77626;BME280;66794;43.764;10.436;2023-07-09T05:53:51;102239.44;;;24.11;100.00
77626;BME280;66794;43.764;10.436;2023-07-09T05:56:37;102256.06;;;24.48;100.00
77626;BME280;66794;43.764;10.436;2023-07-09T05:59:23;102240.00;;;24.38;100.00
77626;BME280;66794;43.764;10.436;2023-07-09T06:02:13;102243.44;;;24.33;100.00
77626;BME280;66794;43.764;10.436;2023-07-09T06:04:59;102205.59;;;24.46;100.00
77626;BME280;66794;43.764;10.436;2023-07-09T06:07:45;102239.66;;;24.64;100.00
77626;BME280;66794;43.764;10.436;2023-07-09T06:10:31;102204.06;;;24.50;100.00
77626;BME280;66794;43.764;10.436;2023-07-09T06:13:16;102201.50;;;24.78;100.00
77626;BME280;66794;43.764;10.436;2023-07-09T06:16:04;102213.63;;;24.65;100.00
77626;BME280;66794;43.764;10.436;2023-07-09T06:18:50;102204.41;;;24.83;100.00
77626;BME280;66794;43.764;10.436;2023-07-09T06:21:36;102216.97;;;24.86;100.00
77626;BME280;66794;43.764;10.436;2023-07-09T06:24:22;102191.50;;;24.77;100.00
77626;BME280;66794;43.764;10.436;2023-07-09T06:27:09;102207.53;;;25.17;100.00
77626;BME280;66794;43.764;10.436;2023-07-09T06:29:55;102184.44;;;24.93;100.00
77626;BME280;66794;43.764;10.436;2023-07-09T06:32:41;102171.69;;;25.04;100.00
77626;BME280;66794;43.764;10.436;2023-07-09T06:35:26;102217.97;;;25.57;100.00
77626;BME280;66794;43.764;10.436;2023-07-09T06:38:12;102173.81;;;25.43;100.00
77626;BME280;66794;43.764;10.436;2023-07-09T06:40:58;102180.31;;;25.26;100.00
77626;BME280;66794;43.764;10.436;2023-07-09T06:43:44;102202.28;;;25.74;100.00
77626;BME280;66794;43.764;10.436;2023-07-09T06:46:29;102193.34;;;25.95;100.00
77626;BME280;66794;43.764;10.436;2023-07-09T06:49:15;102180.78;;;25.93;100.00
77626;BME280;66794;43.764;10.436;2023-07-09T06:52:01;102185.69;;;26.14;100.00
77626;BME280;66794;43.764;10.436;2023-07-09T06:54:47;102154.69;;;26.06;100.00
77626;BME280;66794;43.764;10.436;2023-07-09T06:57:33;102173.94;;;26.24;100.00
77626;BME280;66794;43.764;10.436;2023-07-09T07:00:18;102186.81;;;26.54;100.00
77626;BME280;66794;43.764;10.436;2023-07-09T07:03:05;102206.41;;;26.64;100.00
77626;BME280;66794;43.764;10.436;2023-07-09T07:05:52;102198.53;;;26.72;100.00
77626;BME280;66794;43.764;10.436;2023-07-09T07:08:41;102198.16;;;26.81;100.00
77626;BME280;66794;43.764;10.436;2023-07-09T07:11:27;102202.50;;;26.77;100.00
77626;BME280;66794;43.764;10.436;2023-07-09T07:14:15;102165.63;;;26.81;100.00
77626;BME280;66794;43.764;10.436;2023-07-09T07:17:01;102199.44;;;27.07;100.00
77626;BME280;66794;43.764;10.436;2023-07-09T07:19:49;102181.44;;;27.26;100.00
77626;BME280;66794;43.764;10.436;2023-07-09T07:22:36;102176.44;;;27.28;100.00
77626;BME280;66794;43.764;10.436;2023-07-09T07:25:22;102140.84;;;26.96;100.00
77626;BME280;66794;43.764;10.436;2023-07-09T07:28:08;102178.44;;;27.49;100.00
77626;BME280;66794;43.764;10.436;2023-07-09T07:31:07;102203.66;;;27.60;100.00
77626;BME280;66794;43.764;10.436;2023-07-09T07:33:54;102200.88;;;27.98;100.00
77626;BME280;66794;43.764;10.436;2023-07-09T07:36:40;102191.13;;;27.96;100.00
77626;BME280;66794;43.764;10.436;2023-07-09T07:39:26;102173.25;;;27.92;100.00
77626;BME280;66794;43.764;10.436;2023-07-09T07:42:11;102177.78;;;28.20;100.00
77626;BME280;66794;43.764;10.436;2023-07-09T07:44:57;102157.97;;;28.38;100.00
77626;BME280;66794;43.764;10.436;2023-07-09T07:47:43;102143.03;;;28.49;100.00
77626;BME280;66794;43.764;10.436;2023-07-09T07:50:29;102144.44;;;28.52;100.00
77626;BME280;66794;43.764;10.436;2023-07-09T07:53:15;102143.22;;;28.70;100.00
77626;BME280;66794;43.764;10.436;2023-07-09T07:56:01;102160.88;;;29.07;100.00
77626;BME280;66794;43.764;10.436;2023-07-09T07:58:49;102131.50;;;28.95;100.00
77626;BME280;66794;43.764;10.436;2023-07-09T08:01:35;102128.06;;;29.25;100.00
77626;BME280;66794;43.764;10.436;2023-07-09T08:04:21;102122.13;;;29.48;100.00
77626;BME280;66794;43.764;10.436;2023-07-09T08:07:08;102140.22;;;29.88;100.00
77626;BME280;66794;43.764;10.436;2023-07-09T08:09:54;102083.41;;;29.62;100.00
77626;BME280;66794;43.764;10.436;2023-07-09T08:12:40;102082.34;;;29.78;100.00
77626;BME280;66794;43.764;10.436;2023-07-09T08:15:26;102124.13;;;30.16;100.00
77626;BME280;66794;43.764;10.436;2023-07-09T08:18:14;102127.53;;;30.38;100.00
77626;BME280;66794;43.764;10.436;2023-07-09T08:21:00;102099.31;;;30.29;100.00
77626;BME280;66794;43.764;10.436;2023-07-09T08:23:46;102111.63;;;30.54;100.00
77626;BME280;66794;43.764;10.436;2023-07-09T08:26:32;102068.28;;;30.26;100.00
77626;BME280;66794;43.764;10.436;2023-07-09T08:29:18;102092.34;;;30.57;100.00
77626;BME280;66794;43.764;10.436;2023-07-09T08:32:04;102121.13;;;30.53;100.00
77626;BME280;66794;43.764;10.436;2023-07-09T08:34:50;102118.09;;;30.70;100.00
77626;BME280;66794;43.764;10.436;2023-07-09T08:37:35;102128.13;;;30.60;100.00
77626;BME280;66794;43.764;10.436;2023-07-09T08:40:21;102087.88;;;30.46;100.00
77626;BME280;66794;43.764;10.436;2023-07-09T08:49:30;102123.13;;;31.08;100.00
77626;BME280;66794;43.764;10.436;2023-07-09T08:55:14;102118.94;;;31.31;100.00
77626;BME280;66794;43.764;10.436;2023-07-09T08:58:05;102134.03;;;31.35;100.00
77626;BME280;66794;43.764;10.436;2023-07-09T09:00:56;102118.28;;;31.70;100.00
77626;BME280;66794;43.764;10.436;2023-07-09T09:03:58;102132.53;;;31.84;100.00
77626;BME280;66794;43.764;10.436;2023-07-09T09:06:50;102113.41;;;31.96;100.00
77626;BME280;66794;43.764;10.436;2023-07-09T09:12:28;102103.75;;;32.17;100.00
77626;BME280;66794;43.764;10.436;2023-07-09T09:15:17;102128.22;;;32.07;100.00
77626;BME280;66794;43.764;10.436;2023-07-09T09:18:19;102115.66;;;32.49;96.27
77626;BME280;66794;43.764;10.436;2023-07-09T09:21:23;102117.59;;;32.53;93.59
77626;BME280;66794;43.764;10.436;2023-07-09T09:24:31;102109.38;;;33.01;87.45
77626;BME280;66794;43.764;10.436;2023-07-09T09:27:17;102119.81;;;33.24;86.91
77626;BME280;66794;43.764;10.436;2023-07-09T09:30:03;102100.81;;;32.82;84.82
77626;BME280;66794;43.764;10.436;2023-07-09T09:32:55;102099.91;;;32.58;87.07
77626;BME280;66794;43.764;10.436;2023-07-09T09:35:43;102122.03;;;33.28;85.43
77626;BME280;66794;43.764;10.436;2023-07-09T09:38:29;102107.38;;;33.31;87.39
77626;BME280;66794;43.764;10.436;2023-07-09T09:41:17;102106.41;;;33.45;78.49
77626;BME280;66794;43.764;10.436;2023-07-09T09:44:03;102115.22;;;33.82;84.91
77626;BME280;66794;43.764;10.436;2023-07-09T09:46:49;102116.81;;;33.45;81.75
77626;BME280;66794;43.764;10.436;2023-07-09T09:49:40;102109.69;;;33.53;85.94
77626;BME280;66794;43.764;10.436;2023-07-09T09:52:29;102114.28;;;33.43;82.98
77626;BME280;66794;43.764;10.436;2023-07-09T09:55:19;102112.19;;;34.02;83.84
77626;BME280;66794;43.764;10.436;2023-07-09T09:58:12;102122.59;;;34.01;78.00
77626;BME280;66794;43.764;10.436;2023-07-09T10:00:59;102108.88;;;33.71;76.23
77626;BME280;66794;43.764;10.436;2023-07-09T10:03:51;102118.66;;;34.21;79.31
77626;BME280;66794;43.764;10.436;2023-07-09T10:06:41;102093.19;;;33.70;88.97
77626;BME280;66794;43.764;10.436;2023-07-09T10:09:47;102116.00;;;34.11;82.27
77626;BME280;66794;43.764;10.436;2023-07-09T10:13:10;102116.94;;;34.25;77.30
77626;BME280;66794;43.764;10.436;2023-07-09T10:16:07;102092.47;;;33.59;80.37
77626;BME280;66794;43.764;10.436;2023-07-09T10:19:30;102104.59;;;34.21;73.12
77626;BME280;66794;43.764;10.436;2023-07-09T10:25:33;102108.91;;;34.14;71.08
77626;BME280;66794;43.764;10.436;2023-07-09T10:28:50;102106.19;;;33.85;71.18
77626;BME280;66794;43.764;10.436;2023-07-09T10:35:35;102101.84;;;34.73;75.67
77626;BME280;66794;43.764;10.436;2023-07-09T10:38:31;102110.59;;;34.34;63.35
77626;BME280;66794;43.764;10.436;2023-07-09T10:41:23;102110.69;;;34.28;75.13
77626;BME280;66794;43.764;10.436;2023-07-09T10:44:25;102098.81;;;33.94;58.73
77626;BME280;66794;43.764;10.436;2023-07-09T10:47:26;102096.38;;;34.06;62.58
77626;BME280;66794;43.764;10.436;2023-07-09T10:50:19;102097.75;;;34.46;58.97
77626;BME280;66794;43.764;10.436;2023-07-09T10:53:32;102092.81;;;34.90;64.54
77626;BME280;66794;43.764;10.436;2023-07-09T10:56:26;102092.22;;;34.93;56.88
77626;BME280;66794;43.764;10.436;2023-07-09T10:59:20;102099.59;;;35.08;57.14
77626;BME280;66794;43.764;10.436;2023-07-09T11:02:24;102097.47;;;34.99;51.58
77626;BME280;66794;43.764;10.436;2023-07-09T11:05:11;102087.75;;;35.52;57.49
77626;BME280;66794;43.764;10.436;2023-07-09T11:08:07;102101.94;;;35.47;52.23
77626;BME280;66794;43.764;10.436;2023-07-09T11:11:01;102082.13;;;35.52;57.01
77626;BME280;66794;43.764;10.436;2023-07-09T11:13:53;102082.50;;;35.87;57.73
77626;BME280;66794;43.764;10.436;2023-07-09T11:16:43;102092.34;;;35.48;71.22
77626;BME280;66794;43.764;10.436;2023-07-09T11:19:29;102084.53;;;35.12;67.41
77626;BME280;66794;43.764;10.436;2023-07-09T11:22:24;102096.91;;;35.44;71.23
77626;BME280;66794;43.764;10.436;2023-07-09T11:25:14;102086.91;;;35.79;61.83
77626;BME280;66794;43.764;10.436;2023-07-09T11:28:12;102088.31;;;36.04;79.05
77626;BME280;66794;43.764;10.436;2023-07-09T11:31:08;102087.31;;;35.45;76.94
77626;BME280;66794;43.764;10.436;2023-07-09T11:39:42;102073.72;;;36.02;70.82
77626;BME280;66794;43.764;10.436;2023-07-09T11:42:34;102074.22;;;36.40;65.02
77626;BME280;66794;43.764;10.436;2023-07-09T11:45:26;102088.50;;;36.21;57.68
77626;BME280;66794;43.764;10.436;2023-07-09T11:48:27;102065.78;;;36.63;55.39
77626;BME280;66794;43.764;10.436;2023-07-09T11:54:18;102069.09;;;36.42;50.91
77626;BME280;66794;43.764;10.436;2023-07-09T11:57:10;102068.53;;;36.99;47.34
77626;BME280;66794;43.764;10.436;2023-07-09T11:59:59;102059.91;;;36.14;49.61
77626;BME280;66794;43.764;10.436;2023-07-09T12:02:46;102065.38;;;37.00;45.80
77626;BME280;66794;43.764;10.436;2023-07-09T12:05:33;102070.44;;;37.52;49.18
77626;BME280;66794;43.764;10.436;2023-07-09T12:08:43;102053.47;;;36.58;46.67
77626;BME280;66794;43.764;10.436;2023-07-09T12:11:33;102058.28;;;35.30;86.22
77626;BME280;66794;43.764;10.436;2023-07-09T12:14:21;102057.44;;;35.71;86.72
77626;BME280;66794;43.764;10.436;2023-07-09T12:17:08;102035.25;;;35.15;85.22
77626;BME280;66794;43.764;10.436;2023-07-09T12:19:54;102036.81;;;35.07;91.49
77626;BME280;66794;43.764;10.436;2023-07-09T12:22:40;102009.44;;;35.76;93.13
77626;BME280;66794;43.764;10.436;2023-07-09T12:25:29;102024.00;;;35.56;86.53
77626;BME280;66794;43.764;10.436;2023-07-09T12:28:16;102023.13;;;35.28;85.46
77626;BME280;66794;43.764;10.436;2023-07-09T12:31:02;101995.28;;;35.54;82.69
77626;BME280;66794;43.764;10.436;2023-07-09T12:33:49;102033.97;;;35.21;87.13
77626;BME280;66794;43.764;10.436;2023-07-09T12:36:38;102014.75;;;34.95;89.02
77626;BME280;66794;43.764;10.436;2023-07-09T12:39:26;102032.84;;;35.08;86.23
77626;BME280;66794;43.764;10.436;2023-07-09T12:42:23;102006.22;;;35.00;90.39
77626;BME280;66794;43.764;10.436;2023-07-09T12:45:16;102004.19;;;34.73;92.95
77626;BME280;66794;43.764;10.436;2023-07-09T12:48:04;102011.66;;;34.97;94.73
77626;BME280;66794;43.764;10.436;2023-07-09T12:50:51;102026.69;;;34.73;93.35
77626;BME280;66794;43.764;10.436;2023-07-09T12:53:39;101946.44;;;34.62;94.98
77626;BME280;66794;43.764;10.436;2023-07-09T12:56:24;102026.16;;;34.39;98.84
77626;BME280;66794;43.764;10.436;2023-07-09T12:59:25;102016.41;;;34.50;100.00
77626;BME280;66794;43.764;10.436;2023-07-09T13:02:15;102020.94;;;35.11;94.13
77626;BME280;66794;43.764;10.436;2023-07-09T13:05:17;102002.88;;;35.12;92.64
77626;BME280;66794;43.764;10.436;2023-07-09T13:08:03;102003.66;;;35.45;92.06
77626;BME280;66794;43.764;10.436;2023-07-09T13:10:49;102011.09;;;34.81;91.05
77626;BME280;66794;43.764;10.436;2023-07-09T13:13:37;102008.19;;;34.86;95.44
77626;BME280;66794;43.764;10.436;2023-07-09T13:16:23;101991.03;;;34.69;98.18
77626;BME280;66794;43.764;10.436;2023-07-09T13:19:08;101992.59;;;34.61;92.17
77626;BME280;66794;43.764;10.436;2023-07-09T13:21:54;101995.63;;;34.65;92.89
77626;BME280;66794;43.764;10.436;2023-07-09T13:24:40;101999.38;;;34.74;90.87
77626;BME280;66794;43.764;10.436;2023-07-09T13:27:26;101984.13;;;35.21;90.25
77626;BME280;66794;43.764;10.436;2023-07-09T13:30:12;101981.06;;;34.76;93.91
77626;BME280;66794;43.764;10.436;2023-07-09T13:32:57;102006.91;;;34.78;89.08
77626;BME280;66794;43.764;10.436;2023-07-09T13:35:46;101993.75;;;34.41;90.05
77626;BME280;66794;43.764;10.436;2023-07-09T13:38:32;101995.72;;;34.41;94.16
77626;BME280;66794;43.764;10.436;2023-07-09T13:41:19;102002.22;;;34.88;94.36
77626;BME280;66794;43.764;10.436;2023-07-09T13:44:15;101995.91;;;34.96;87.28
77626;BME280;66794;43.764;10.436;2023-07-09T13:47:02;101986.78;;;34.39;89.98
77626;BME280;66794;43.764;10.436;2023-07-09T13:49:47;101999.69;;;34.59;93.38
77626;BME280;66794;43.764;10.436;2023-07-09T13:52:34;102001.81;;;34.81;91.09
77626;BME280;66794;43.764;10.436;2023-07-09T13:55:22;101997.41;;;34.42;91.12
77626;BME280;66794;43.764;10.436;2023-07-09T13:58:10;101990.59;;;34.62;91.07
77626;BME280;66794;43.764;10.436;2023-07-09T14:01:05;101995.63;;;34.65;91.55
77626;BME280;66794;43.764;10.436;2023-07-09T14:03:56;101974.09;;;34.88;91.93
77626;BME280;66794;43.764;10.436;2023-07-09T14:06:44;101990.00;;;34.65;92.02
77626;BME280;66794;43.764;10.436;2023-07-09T14:09:31;101975.72;;;34.61;93.45
77626;BME280;66794;43.764;10.436;2023-07-09T14:12:17;101971.19;;;35.20;97.38
77626;BME280;66794;43.764;10.436;2023-07-09T14:15:11;101986.16;;;34.88;99.00
77626;BME280;66794;43.764;10.436;2023-07-09T14:17:57;101983.81;;;35.23;87.68
77626;BME280;66794;43.764;10.436;2023-07-09T14:20:44;101992.16;;;35.92;90.85
77626;BME280;66794;43.764;10.436;2023-07-09T14:23:30;101992.09;;;36.19;81.60
77626;BME280;66794;43.764;10.436;2023-07-09T14:26:16;101990.41;;;35.82;82.67
77626;BME280;66794;43.764;10.436;2023-07-09T14:29:01;101989.84;;;35.58;81.01
77626;BME280;66794;43.764;10.436;2023-07-09T14:31:47;101991.31;;;35.41;88.90
77626;BME280;66794;43.764;10.436;2023-07-09T14:34:33;101979.88;;;34.96;87.20
77626;BME280;66794;43.764;10.436;2023-07-09T14:37:19;101992.03;;;35.33;93.16
77626;BME280;66794;43.764;10.436;2023-07-09T14:40:05;101975.53;;;36.26;76.22
77626;BME280;66794;43.764;10.436;2023-07-09T14:42:51;101981.97;;;35.46;89.69
77626;BME280;66794;43.764;10.436;2023-07-09T14:45:38;101981.72;;;35.28;83.27
77626;BME280;66794;43.764;10.436;2023-07-09T14:48:23;101980.88;;;34.87;86.15